sensor_id;sensor_type;location;lat;lon;timestamp;temperature;humidity
2623;DHT22;1321;48.690;9.022;2023-07-13T00:01:13;22.40;99.90
2623;DHT22;1321;48.690;9.022;2023-07-13T00:03:42;22.30;99.90
2623;DHT22;1321;48.690;9.022;2023-07-13T00:06:12;22.30;99.90
2623;DHT22;1321;48.690;9.022;2023-07-13T00:08:40;22.20;99.90
2623;DHT22;1321;48.690;9.022;2023-07-13T00:11:08;22.20;99.90
2623;DHT22;1321;48.690;9.022;2023-07-13T00:13:37;22.20;99.90
2623;DHT22;1321;48.690;9.022;2023-07-13T00:16:08;22.20;99.90
2623;DHT22;1321;48.690;9.022;2023-07-13T00:18:37;22.10;99.90
2623;DHT22;1321;48.690;9.022;2023-07-13T00:21:05;22.10;99.90
2623;DHT22;1321;48.690;9.022;2023-07-13T00:23:37;22.10;99.90
2623;DHT22;1321;48.690;9.022;2023-07-13T00:26:07;22.10;99.90
2623;DHT22;1321;48.690;9.022;2023-07-13T00:28:37;22.10;99.90
2623;DHT22;1321;48.690;9.022;2023-07-13T00:31:08;22.10;99.90
2623;DHT22;1321;48.690;9.022;2023-07-13T00:33:37;22.10;99.90
2623;DHT22;1321;48.690;9.022;2023-07-13T00:36:06;22.00;99.90
2623;DHT22;1321;48.690;9.022;2023-07-13T00:38:36;22.00;99.90
2623;DHT22;1321;48.690;9.022;2023-07-13T00:41:04;22.00;99.90
2623;DHT22;1321;48.690;9.022;2023-07-13T00:43:32;21.90;99.90
2623;DHT22;1321;48.690;9.022;2023-07-13T00:46:25;21.90;99.90
2623;DHT22;1321;48.690;9.022;2023-07-13T00:48:56;21.80;99.90
2623;DHT22;1321;48.690;9.022;2023-07-13T00:51:29;21.90;99.90
2623;DHT22;1321;48.690;9.022;2023-07-13T00:54:00;21.90;99.90
2623;DHT22;1321;48.690;9.022;2023-07-13T00:56:31;21.90;99.90
2623;DHT22;1321;48.690;9.022;2023-07-13T00:59:02;21.90;99.90
2623;DHT22;1321;48.690;9.022;2023-07-13T01:01:32;21.90;99.90
2623;DHT22;1321;48.690;9.022;2023-07-13T01:04:00;21.80;99.90
2623;DHT22;1321;48.690;9.022;2023-07-13T01:06:28;21.80;99.90
2623;DHT22;1321;48.690;9.022;2023-07-13T01:08:59;21.80;99.90
2623;DHT22;1321;48.690;9.022;2023-07-13T01:11:27;21.80;99.90
2623;DHT22;1321;48.690;9.022;2023-07-13T01:13:56;21.80;99.90
2623;DHT22;1321;48.690;9.022;2023-07-13T01:16:25;21.80;99.90
2623;DHT22;1321;48.690;9.022;2023-07-13T01:18:55;21.80;99.90
2623;DHT22;1321;48.690;9.022;2023-07-13T01:21:27;21.80;99.90
2623;DHT22;1321;48.690;9.022;2023-07-13T01:23:55;21.80;99.90
2623;DHT22;1321;48.690;9.022;2023-07-13T01:26:23;21.70;99.90
2623;DHT22;1321;48.690;9.022;2023-07-13T01:28:51;21.70;99.90
2623;DHT22;1321;48.690;9.022;2023-07-13T01:31:19;21.70;99.90
2623;DHT22;1321;48.690;9.022;2023-07-13T01:33:47;21.70;99.90
2623;DHT22;1321;48.690;9.022;2023-07-13T01:36:15;21.60;99.90
2623;DHT22;1321;48.690;9.022;2023-07-13T01:38:45;21.50;99.90
2623;DHT22;1321;48.690;9.022;2023-07-13T01:41:13;21.60;99.90
2623;DHT22;1321;48.690;9.022;2023-07-13T01:43:41;21.50;99.90
2623;DHT22;1321;48.690;9.022;2023-07-13T01:46:09;21.50;99.90
2623;DHT22;1321;48.690;9.022;2023-07-13T01:48:49;21.50;99.90
2623;DHT22;1321;48.690;9.022;2023-07-13T01:51:19;21.50;99.90
2623;DHT22;1321;48.690;9.022;2023-07-13T01:53:48;21.40;99.90
2623;DHT22;1321;48.690;9.022;2023-07-13T01:56:17;21.40;99.90
2623;DHT22;1321;48.690;9.022;2023-07-13T01:58:45;21.40;99.90
2623;DHT22;1321;48.690;9.022;2023-07-13T02:01:14;21.30;99.90
2623;DHT22;1321;48.690;9.022;2023-07-13T02:03:42;21.30;99.90
2623;DHT22;1321;48.690;9.022;2023-07-13T02:06:10;21.40;99.90
2623;DHT22;1321;48.690;9.022;2023-07-13T02:08:40;21.30;99.90
2623;DHT22;1321;48.690;9.022;2023-07-13T02:11:10;21.30;99.90
2623;DHT22;1321;48.690;9.022;2023-07-13T02:13:38;21.30;99.90
2623;DHT22;1321;48.690;9.022;2023-07-13T02:16:06;21.30;99.90
2623;DHT22;1321;48.690;9.022;2023-07-13T02:18:34;21.30;99.90
2623;DHT22;1321;48.690;9.022;2023-07-13T02:21:02;21.30;99.90
2623;DHT22;1321;48.690;9.022;2023-07-13T02:23:31;21.30;99.90
2623;DHT22;1321;48.690;9.022;2023-07-13T02:26:00;21.20;99.90
2623;DHT22;1321;48.690;9.022;2023-07-13T02:28:30;21.10;99.90
2623;DHT22;1321;48.690;9.022;2023-07-13T02:31:05;21.20;99.90
2623;DHT22;1321;48.690;9.022;2023-07-13T02:33:33;21.10;99.90
2623;DHT22;1321;48.690;9.022;2023-07-13T02:36:01;21.10;99.90
2623;DHT22;1321;48.690;9.022;2023-07-13T02:38:30;21.10;99.90
2623;DHT22;1321;48.690;9.022;2023-07-13T02:41:00;21.20;99.90
2623;DHT22;1321;48.690;9.022;2023-07-13T02:43:30;21.10;99.90
2623;DHT22;1321;48.690;9.022;2023-07-13T02:45:59;21.00;99.90
2623;DHT22;1321;48.690;9.022;2023-07-13T02:48:30;21.00;99.90
2623;DHT22;1321;48.690;9.022;2023-07-13T02:50:59;20.90;99.90
2623;DHT22;1321;48.690;9.022;2023-07-13T02:53:27;20.90;99.90
2623;DHT22;1321;48.690;9.022;2023-07-13T02:55:55;20.90;99.90
2623;DHT22;1321;48.690;9.022;2023-07-13T02:58:23;20.90;99.90
2623;DHT22;1321;48.690;9.022;2023-07-13T03:00:53;20.80;99.90
2623;DHT22;1321;48.690;9.022;2023-07-13T03:03:21;20.80;99.90
2623;DHT22;1321;48.690;9.022;2023-07-13T03:05:58;20.80;99.90
2623;DHT22;1321;48.690;9.022;2023-07-13T03:08:26;20.70;99.90
2623;DHT22;1321;48.690;9.022;2023-07-13T03:10:59;20.60;99.90
2623;DHT22;1321;48.690;9.022;2023-07-13T03:13:28;20.70;99.90
2623;DHT22;1321;48.690;9.022;2023-07-13T03:15:57;20.60;99.90
2623;DHT22;1321;48.690;9.022;2023-07-13T03:18:27;20.60;99.90
2623;DHT22;1321;48.690;9.022;2023-07-13T03:20:55;20.60;99.90
2623;DHT22;1321;48.690;9.022;2023-07-13T03:23:24;20.60;99.90
2623;DHT22;1321;48.690;9.022;2023-07-13T03:26:01;20.60;99.90
2623;DHT22;1321;48.690;9.022;2023-07-13T03:28:30;20.50;99.90
2623;DHT22;1321;48.690;9.022;2023-07-13T03:31:04;20.50;99.90
2623;DHT22;1321;48.690;9.022;2023-07-13T03:33:32;20.50;99.90
2623;DHT22;1321;48.690;9.022;2023-07-13T03:36:01;20.60;99.90
2623;DHT22;1321;48.690;9.022;2023-07-13T03:38:29;20.60;99.90
2623;DHT22;1321;48.690;9.022;2023-07-13T03:40:58;20.60;99.90
2623;DHT22;1321;48.690;9.022;2023-07-13T03:43:26;20.50;99.90
2623;DHT22;1321;48.690;9.022;2023-07-13T03:45:55;20.50;99.90
2623;DHT22;1321;48.690;9.022;2023-07-13T03:48:24;20.50;99.90
2623;DHT22;1321;48.690;9.022;2023-07-13T03:50:52;20.50;99.90
2623;DHT22;1321;48.690;9.022;2023-07-13T03:53:20;20.50;99.90
2623;DHT22;1321;48.690;9.022;2023-07-13T03:55:48;20.40;99.90
2623;DHT22;1321;48.690;9.022;2023-07-13T03:58:31;20.40;99.90
2623;DHT22;1321;48.690;9.022;2023-07-13T04:01:00;20.50;99.90
2623;DHT22;1321;48.690;9.022;2023-07-13T04:03:31;20.50;99.90
2623;DHT22;1321;48.690;9.022;2023-07-13T04:06:00;20.40;99.90
2623;DHT22;1321;48.690;9.022;2023-07-13T04:08:30;20.30;99.90
2623;DHT22;1321;48.690;9.022;2023-07-13T04:10:59;20.30;99.90
2623;DHT22;1321;48.690;9.022;2023-07-13T04:13:27;20.30;99.90
2623;DHT22;1321;48.690;9.022;2023-07-13T04:15:55;20.30;99.90
2623;DHT22;1321;48.690;9.022;2023-07-13T04:18:23;20.30;99.90
2623;DHT22;1321;48.690;9.022;2023-07-13T04:20:53;20.30;99.90
2623;DHT22;1321;48.690;9.022;2023-07-13T04:23:21;20.30;99.90
2623;DHT22;1321;48.690;9.022;2023-07-13T04:25:51;20.30;99.90
2623;DHT22;1321;48.690;9.022;2023-07-13T04:28:21;20.30;99.90
2623;DHT22;1321;48.690;9.022;2023-07-13T04:30:49;20.30;99.90
2623;DHT22;1321;48.690;9.022;2023-07-13T04:33:18;20.30;99.90
2623;DHT22;1321;48.690;9.022;2023-07-13T04:35:49;20.30;99.90
2623;DHT22;1321;48.690;9.022;2023-07-13T04:38:26;20.40;99.90
2623;DHT22;1321;48.690;9.022;2023-07-13T04:40:55;20.30;99.90
2623;DHT22;1321;48.690;9.022;2023-07-13T04:43:24;20.30;99.90
2623;DHT22;1321;48.690;9.022;2023-07-13T04:45:53;20.20;99.90
2623;DHT22;1321;48.690;9.022;2023-07-13T04:48:21;20.20;99.90
2623;DHT22;1321;48.690;9.022;2023-07-13T04:50:55;20.20;99.90
2623;DHT22;1321;48.690;9.022;2023-07-13T04:53:25;20.00;99.90
2623;DHT22;1321;48.690;9.022;2023-07-13T04:55:54;20.00;99.90
2623;DHT22;1321;48.690;9.022;2023-07-13T04:58:22;20.00;99.90
2623;DHT22;1321;48.690;9.022;2023-07-13T05:00:50;20.00;99.90
2623;DHT22;1321;48.690;9.022;2023-07-13T05:03:22;20.20;99.90
2623;DHT22;1321;48.690;9.022;2023-07-13T05:05:57;20.10;99.90
2623;DHT22;1321;48.690;9.022;2023-07-13T05:08:27;20.20;99.90
2623;DHT22;1321;48.690;9.022;2023-07-13T05:11:00;20.40;99.90
2623;DHT22;1321;48.690;9.022;2023-07-13T05:13:37;20.50;99.90
2623;DHT22;1321;48.690;9.022;2023-07-13T05:19:49;20.40;99.90
2623;DHT22;1321;48.690;9.022;2023-07-13T05:22:45;20.40;99.90
2623;DHT22;1321;48.690;9.022;2023-07-13T05:25:16;20.40;99.90
2623;DHT22;1321;48.690;9.022;2023-07-13T05:27:44;20.30;99.90
2623;DHT22;1321;48.690;9.022;2023-07-13T05:30:14;20.40;99.90
2623;DHT22;1321;48.690;9.022;2023-07-13T05:32:42;20.50;99.90
2623;DHT22;1321;48.690;9.022;2023-07-13T05:35:10;20.40;99.90
2623;DHT22;1321;48.690;9.022;2023-07-13T05:37:41;20.50;99.90
2623;DHT22;1321;48.690;9.022;2023-07-13T05:40:10;20.70;99.90
2623;DHT22;1321;48.690;9.022;2023-07-13T05:42:40;20.70;99.90
2623;DHT22;1321;48.690;9.022;2023-07-13T05:45:09;20.70;99.90
2623;DHT22;1321;48.690;9.022;2023-07-13T05:47:37;20.70;99.90
2623;DHT22;1321;48.690;9.022;2023-07-13T05:50:06;20.80;99.90
2623;DHT22;1321;48.690;9.022;2023-07-13T05:52:35;20.80;99.90
2623;DHT22;1321;48.690;9.022;2023-07-13T05:55:06;20.80;99.90
2623;DHT22;1321;48.690;9.022;2023-07-13T05:57:35;20.80;99.90
2623;DHT22;1321;48.690;9.022;2023-07-13T06:00:06;20.80;99.90
2623;DHT22;1321;48.690;9.022;2023-07-13T06:02:34;20.90;99.90
2623;DHT22;1321;48.690;9.022;2023-07-13T06:05:03;20.90;99.90
2623;DHT22;1321;48.690;9.022;2023-07-13T06:07:32;20.90;99.90
2623;DHT22;1321;48.690;9.022;2023-07-13T06:10:00;20.90;99.90
2623;DHT22;1321;48.690;9.022;2023-07-13T06:12:28;20.90;99.90
2623;DHT22;1321;48.690;9.022;2023-07-13T06:14:56;20.90;99.90
2623;DHT22;1321;48.690;9.022;2023-07-13T06:17:27;21.00;99.90
2623;DHT22;1321;48.690;9.022;2023-07-13T06:19:57;21.00;99.90
2623;DHT22;1321;48.690;9.022;2023-07-13T06:22:26;21.00;99.90
2623;DHT22;1321;48.690;9.022;2023-07-13T06:24:54;21.10;99.90
2623;DHT22;1321;48.690;9.022;2023-07-13T06:27:22;21.10;99.90
2623;DHT22;1321;48.690;9.022;2023-07-13T06:29:50;21.20;99.90
2623;DHT22;1321;48.690;9.022;2023-07-13T06:32:19;21.20;99.90
2623;DHT22;1321;48.690;9.022;2023-07-13T06:34:51;21.40;99.90
2623;DHT22;1321;48.690;9.022;2023-07-13T06:37:19;21.40;99.90
2623;DHT22;1321;48.690;9.022;2023-07-13T06:39:47;21.60;99.90
2623;DHT22;1321;48.690;9.022;2023-07-13T06:42:16;21.70;99.90
2623;DHT22;1321;48.690;9.022;2023-07-13T06:44:44;21.70;99.90
2623;DHT22;1321;48.690;9.022;2023-07-13T06:47:12;21.70;99.90
2623;DHT22;1321;48.690;9.022;2023-07-13T06:49:40;21.80;99.90
2623;DHT22;1321;48.690;9.022;2023-07-13T06:52:10;22.00;99.90
2623;DHT22;1321;48.690;9.022;2023-07-13T06:54:38;22.10;99.90
2623;DHT22;1321;48.690;9.022;2023-07-13T06:57:06;22.20;99.90
2623;DHT22;1321;48.690;9.022;2023-07-13T06:59:35;22.20;99.90
2623;DHT22;1321;48.690;9.022;2023-07-13T07:02:04;22.20;99.90
2623;DHT22;1321;48.690;9.022;2023-07-13T07:04:32;22.30;99.90
2623;DHT22;1321;48.690;9.022;2023-07-13T07:07:00;22.50;99.90
2623;DHT22;1321;48.690;9.022;2023-07-13T07:09:32;22.40;99.90
2623;DHT22;1321;48.690;9.022;2023-07-13T07:12:01;22.30;99.90
2623;DHT22;1321;48.690;9.022;2023-07-13T07:14:31;22.30;99.90
2623;DHT22;1321;48.690;9.022;2023-07-13T07:17:01;22.40;99.90
2623;DHT22;1321;48.690;9.022;2023-07-13T07:19:30;22.20;99.90
2623;DHT22;1321;48.690;9.022;2023-07-13T07:21:58;22.30;99.90
2623;DHT22;1321;48.690;9.022;2023-07-13T07:24:26;22.40;99.90
2623;DHT22;1321;48.690;9.022;2023-07-13T07:27:00;22.50;99.90
2623;DHT22;1321;48.690;9.022;2023-07-13T07:29:31;22.60;99.90
2623;DHT22;1321;48.690;9.022;2023-07-13T07:32:02;22.60;99.90
2623;DHT22;1321;48.690;9.022;2023-07-13T07:34:50;22.70;99.90
2623;DHT22;1321;48.690;9.022;2023-07-13T07:37:18;22.70;99.90
2623;DHT22;1321;48.690;9.022;2023-07-13T07:39:49;22.70;99.90
2623;DHT22;1321;48.690;9.022;2023-07-13T07:42:39;22.70;99.90
2623;DHT22;1321;48.690;9.022;2023-07-13T07:45:07;22.70;99.90
2623;DHT22;1321;48.690;9.022;2023-07-13T07:47:38;22.70;99.90
2623;DHT22;1321;48.690;9.022;2023-07-13T07:50:06;22.80;99.90
2623;DHT22;1321;48.690;9.022;2023-07-13T07:52:35;22.90;99.90
2623;DHT22;1321;48.690;9.022;2023-07-13T07:55:05;23.00;99.90
2623;DHT22;1321;48.690;9.022;2023-07-13T07:57:38;23.00;99.90
2623;DHT22;1321;48.690;9.022;2023-07-13T08:00:10;23.00;99.90
2623;DHT22;1321;48.690;9.022;2023-07-13T08:02:43;23.00;99.90
2623;DHT22;1321;48.690;9.022;2023-07-13T08:05:14;23.10;99.90
2623;DHT22;1321;48.690;9.022;2023-07-13T08:07:45;23.10;99.90
2623;DHT22;1321;48.690;9.022;2023-07-13T08:10:14;23.10;99.90
2623;DHT22;1321;48.690;9.022;2023-07-13T08:12:43;23.10;99.90
2623;DHT22;1321;48.690;9.022;2023-07-13T08:15:31;23.10;99.90
2623;DHT22;1321;48.690;9.022;2023-07-13T08:18:00;23.20;99.90
2623;DHT22;1321;48.690;9.022;2023-07-13T08:20:28;23.20;99.90
2623;DHT22;1321;48.690;9.022;2023-07-13T08:22:56;23.20;99.90
2623;DHT22;1321;48.690;9.022;2023-07-13T08:25:24;23.20;99.90
2623;DHT22;1321;48.690;9.022;2023-07-13T08:27:54;23.30;99.90
2623;DHT22;1321;48.690;9.022;2023-07-13T08:30:22;23.40;99.90
2623;DHT22;1321;48.690;9.022;2023-07-13T08:32:51;23.40;99.90
2623;DHT22;1321;48.690;9.022;2023-07-13T08:35:19;23.50;99.90
2623;DHT22;1321;48.690;9.022;2023-07-13T08:37:47;23.50;99.90
2623;DHT22;1321;48.690;9.022;2023-07-13T08:40:25;23.60;99.90
2623;DHT22;1321;48.690;9.022;2023-07-13T08:42:58;23.60;99.90
2623;DHT22;1321;48.690;9.022;2023-07-13T08:45:33;23.60;99.90
2623;DHT22;1321;48.690;9.022;2023-07-13T08:48:08;23.50;99.90
2623;DHT22;1321;48.690;9.022;2023-07-13T08:50:48;23.60;99.90
2623;DHT22;1321;48.690;9.022;2023-07-13T08:53:36;23.70;99.90
2623;DHT22;1321;48.690;9.022;2023-07-13T08:56:20;23.80;99.90
2623;DHT22;1321;48.690;9.022;2023-07-13T08:58:54;23.90;99.90
2623;DHT22;1321;48.690;9.022;2023-07-13T09:01:29;23.90;99.90
2623;DHT22;1321;48.690;9.022;2023-07-13T09:04:04;23.70;99.70
2623;DHT22;1321;48.690;9.022;2023-07-13T09:06:55;23.80;99.90
2623;DHT22;1321;48.690;9.022;2023-07-13T09:09:42;23.90;99.90
2623;DHT22;1321;48.690;9.022;2023-07-13T09:16:25;24.10;99.90
2623;DHT22;1321;48.690;9.022;2023-07-13T09:19:00;24.00;99.90
2623;DHT22;1321;48.690;9.022;2023-07-13T09:21:32;24.00;98.30
2623;DHT22;1321;48.690;9.022;2023-07-13T09:24:49;24.00;97.50
2623;DHT22;1321;48.690;9.022;2023-07-13T09:34:13;24.30;99.90
2623;DHT22;1321;48.690;9.022;2023-07-13T09:36:42;24.40;99.90
2623;DHT22;1321;48.690;9.022;2023-07-13T09:47:47;24.40;99.90
2623;DHT22;1321;48.690;9.022;2023-07-13T09:50:21;24.50;99.90
2623;DHT22;1321;48.690;9.022;2023-07-13T09:52:55;24.70;99.90
2623;DHT22;1321;48.690;9.022;2023-07-13T09:55:29;24.70;99.90
2623;DHT22;1321;48.690;9.022;2023-07-13T09:57:59;24.70;99.90
2623;DHT22;1321;48.690;9.022;2023-07-13T10:00:32;24.80;99.90
2623;DHT22;1321;48.690;9.022;2023-07-13T10:03:03;24.70;99.90
2623;DHT22;1321;48.690;9.022;2023-07-13T10:05:42;24.70;99.90
2623;DHT22;1321;48.690;9.022;2023-07-13T10:08:19;24.80;99.90
2623;DHT22;1321;48.690;9.022;2023-07-13T10:10:53;24.80;99.90
2623;DHT22;1321;48.690;9.022;2023-07-13T10:13:57;24.50;97.50
2623;DHT22;1321;48.690;9.022;2023-07-13T10:16:30;24.70;99.40
2623;DHT22;1321;48.690;9.022;2023-07-13T10:19:06;24.80;99.90
2623;DHT22;1321;48.690;9.022;2023-07-13T10:21:52;24.90;99.90
2623;DHT22;1321;48.690;9.022;2023-07-13T10:24:24;24.90;99.20
2623;DHT22;1321;48.690;9.022;2023-07-13T10:27:00;24.90;99.70
2623;DHT22;1321;48.690;9.022;2023-07-13T10:29:35;25.00;99.50
2623;DHT22;1321;48.690;9.022;2023-07-13T10:32:09;25.10;99.90
2623;DHT22;1321;48.690;9.022;2023-07-13T10:34:39;25.20;99.90
2623;DHT22;1321;48.690;9.022;2023-07-13T10:44:04;25.20;96.70
2623;DHT22;1321;48.690;9.022;2023-07-13T10:46:38;25.20;98.70
2623;DHT22;1321;48.690;9.022;2023-07-13T10:49:08;25.20;99.10
2623;DHT22;1321;48.690;9.022;2023-07-13T10:51:59;25.30;99.90
2623;DHT22;1321;48.690;9.022;2023-07-13T10:54:30;25.40;99.90
2623;DHT22;1321;48.690;9.022;2023-07-13T10:57:15;25.50;99.90
2623;DHT22;1321;48.690;9.022;2023-07-13T10:59:48;25.50;99.90
2623;DHT22;1321;48.690;9.022;2023-07-13T11:02:26;25.50;99.90
2623;DHT22;1321;48.690;9.022;2023-07-13T11:04:57;25.50;99.90
2623;DHT22;1321;48.690;9.022;2023-07-13T11:07:28;25.50;99.10
2623;DHT22;1321;48.690;9.022;2023-07-13T11:09:57;25.40;97.20
2623;DHT22;1321;48.690;9.022;2023-07-13T11:12:29;25.30;97.20
2623;DHT22;1321;48.690;9.022;2023-07-13T11:15:32;25.30;96.30
2623;DHT22;1321;48.690;9.022;2023-07-13T11:18:04;25.10;94.50
2623;DHT22;1321;48.690;9.022;2023-07-13T11:20:35;25.20;96.20
2623;DHT22;1321;48.690;9.022;2023-07-13T11:26:02;25.40;99.00
2623;DHT22;1321;48.690;9.022;2023-07-13T11:28:31;25.40;97.90
2623;DHT22;1321;48.690;9.022;2023-07-13T11:31:12;25.50;99.40
2623;DHT22;1321;48.690;9.022;2023-07-13T11:33:54;25.50;97.30
2623;DHT22;1321;48.690;9.022;2023-07-13T11:36:35;25.30;96.30
2623;DHT22;1321;48.690;9.022;2023-07-13T11:39:16;25.40;97.00
2623;DHT22;1321;48.690;9.022;2023-07-13T11:41:50;25.40;97.20
2623;DHT22;1321;48.690;9.022;2023-07-13T11:44:21;25.40;97.10
2623;DHT22;1321;48.690;9.022;2023-07-13T11:46:53;25.40;93.50
2623;DHT22;1321;48.690;9.022;2023-07-13T11:49:23;25.50;95.40
2623;DHT22;1321;48.690;9.022;2023-07-13T11:51:54;25.40;95.20
2623;DHT22;1321;48.690;9.022;2023-07-13T11:54:28;25.40;96.60
2623;DHT22;1321;48.690;9.022;2023-07-13T11:56:59;25.50;97.20
2623;DHT22;1321;48.690;9.022;2023-07-13T11:59:30;25.50;97.40
2623;DHT22;1321;48.690;9.022;2023-07-13T12:02:01;25.40;96.00
2623;DHT22;1321;48.690;9.022;2023-07-13T12:04:32;25.40;95.10
2623;DHT22;1321;48.690;9.022;2023-07-13T12:07:06;25.40;95.10
2623;DHT22;1321;48.690;9.022;2023-07-13T12:09:36;25.50;96.10
2623;DHT22;1321;48.690;9.022;2023-07-13T12:12:10;25.60;97.50
2623;DHT22;1321;48.690;9.022;2023-07-13T12:14:40;25.70;98.30
2623;DHT22;1321;48.690;9.022;2023-07-13T12:17:15;25.60;97.10
2623;DHT22;1321;48.690;9.022;2023-07-13T12:19:44;25.60;96.90
2623;DHT22;1321;48.690;9.022;2023-07-13T12:22:16;25.60;96.40
2623;DHT22;1321;48.690;9.022;2023-07-13T12:24:56;25.60;96.40
2623;DHT22;1321;48.690;9.022;2023-07-13T12:27:26;25.70;95.60
2623;DHT22;1321;48.690;9.022;2023-07-13T12:29:59;25.70;97.30
2623;DHT22;1321;48.690;9.022;2023-07-13T12:32:29;25.90;98.90
2623;DHT22;1321;48.690;9.022;2023-07-13T12:35:15;26.00;97.80
2623;DHT22;1321;48.690;9.022;2023-07-13T12:37:50;26.10;99.30
2623;DHT22;1321;48.690;9.022;2023-07-13T12:40:20;26.20;98.40
2623;DHT22;1321;48.690;9.022;2023-07-13T12:42:52;26.20;98.80
2623;DHT22;1321;48.690;9.022;2023-07-13T12:45:22;26.20;98.90
2623;DHT22;1321;48.690;9.022;2023-07-13T12:47:55;26.10;97.60
2623;DHT22;1321;48.690;9.022;2023-07-13T12:50:29;26.10;97.90
2623;DHT22;1321;48.690;9.022;2023-07-13T12:53:01;26.20;99.90
2623;DHT22;1321;48.690;9.022;2023-07-13T12:55:30;26.20;99.90
2623;DHT22;1321;48.690;9.022;2023-07-13T12:58:03;26.20;97.80
2623;DHT22;1321;48.690;9.022;2023-07-13T13:00:35;26.20;99.90
2623;DHT22;1321;48.690;9.022;2023-07-13T13:03:16;26.20;99.90
2623;DHT22;1321;48.690;9.022;2023-07-13T13:06:00;26.30;99.30
2623;DHT22;1321;48.690;9.022;2023-07-13T13:08:32;26.20;98.20
2623;DHT22;1321;48.690;9.022;2023-07-13T13:11:01;26.20;99.90
2623;DHT22;1321;48.690;9.022;2023-07-13T13:13:29;26.20;97.00
2623;DHT22;1321;48.690;9.022;2023-07-13T13:16:02;26.10;95.70
2623;DHT22;1321;48.690;9.022;2023-07-13T13:18:34;26.10;96.70
2623;DHT22;1321;48.690;9.022;2023-07-13T13:21:03;26.10;97.80
2623;DHT22;1321;48.690;9.022;2023-07-13T13:23:31;26.20;96.20
2623;DHT22;1321;48.690;9.022;2023-07-13T13:25:59;26.10;93.70
2623;DHT22;1321;48.690;9.022;2023-07-13T13:28:32;26.10;91.80
2623;DHT22;1321;48.690;9.022;2023-07-13T13:33:53;26.20;92.40
2623;DHT22;1321;48.690;9.022;2023-07-13T13:36:23;26.10;91.40
2623;DHT22;1321;48.690;9.022;2023-07-13T13:38:51;26.20;92.20
2623;DHT22;1321;48.690;9.022;2023-07-13T13:41:19;26.30;93.90
2623;DHT22;1321;48.690;9.022;2023-07-13T13:43:48;26.30;99.90
2623;DHT22;1321;48.690;9.022;2023-07-13T13:46:18;26.40;92.70
2623;DHT22;1321;48.690;9.022;2023-07-13T13:48:47;26.40;92.10
2623;DHT22;1321;48.690;9.022;2023-07-13T13:51:18;26.40;90.80
2623;DHT22;1321;48.690;9.022;2023-07-13T13:53:50;26.40;92.00
2623;DHT22;1321;48.690;9.022;2023-07-13T13:56:21;26.40;93.60
2623;DHT22;1321;48.690;9.022;2023-07-13T13:58:53;26.40;96.10
2623;DHT22;1321;48.690;9.022;2023-07-13T14:01:22;26.50;95.00
2623;DHT22;1321;48.690;9.022;2023-07-13T14:03:51;26.60;93.60
2623;DHT22;1321;48.690;9.022;2023-07-13T14:06:21;26.60;95.20
2623;DHT22;1321;48.690;9.022;2023-07-13T14:08:53;26.60;95.20
2623;DHT22;1321;48.690;9.022;2023-07-13T14:11:26;26.60;92.50
2623;DHT22;1321;48.690;9.022;2023-07-13T14:13:57;26.60;91.30
2623;DHT22;1321;48.690;9.022;2023-07-13T14:16:29;26.60;91.30
2623;DHT22;1321;48.690;9.022;2023-07-13T14:18:59;26.60;91.50
2623;DHT22;1321;48.690;9.022;2023-07-13T14:21:33;26.50;91.00
2623;DHT22;1321;48.690;9.022;2023-07-13T14:24:03;26.60;91.60
2623;DHT22;1321;48.690;9.022;2023-07-13T14:26:37;26.60;91.80
2623;DHT22;1321;48.690;9.022;2023-07-13T14:29:28;26.50;92.00
2623;DHT22;1321;48.690;9.022;2023-07-13T14:32:18;26.50;92.20
2623;DHT22;1321;48.690;9.022;2023-07-13T14:34:53;26.50;93.20
2623;DHT22;1321;48.690;9.022;2023-07-13T14:37:22;26.60;92.10
2623;DHT22;1321;48.690;9.022;2023-07-13T14:40:48;26.60;92.60
2623;DHT22;1321;48.690;9.022;2023-07-13T14:43:50;26.60;94.00
2623;DHT22;1321;48.690;9.022;2023-07-13T14:46:48;26.50;91.30
2623;DHT22;1321;48.690;9.022;2023-07-13T14:49:24;26.40;92.40
2623;DHT22;1321;48.690;9.022;2023-07-13T14:51:54;26.50;92.20
2623;DHT22;1321;48.690;9.022;2023-07-13T14:54:35;26.50;94.30
2623;DHT22;1321;48.690;9.022;2023-07-13T14:57:15;26.60;93.70
2623;DHT22;1321;48.690;9.022;2023-07-13T15:00:02;26.60;99.90
2623;DHT22;1321;48.690;9.022;2023-07-13T15:02:39;26.50;91.50
2623;DHT22;1321;48.690;9.022;2023-07-13T15:05:13;26.50;91.80
2623;DHT22;1321;48.690;9.022;2023-07-13T15:07:44;26.50;93.40
2623;DHT22;1321;48.690;9.022;2023-07-13T15:10:16;26.50;92.70
2623;DHT22;1321;48.690;9.022;2023-07-13T15:12:50;26.60;92.50
2623;DHT22;1321;48.690;9.022;2023-07-13T15:15:19;26.40;90.90
2623;DHT22;1321;48.690;9.022;2023-07-13T15:17:48;26.40;93.70
2623;DHT22;1321;48.690;9.022;2023-07-13T15:20:21;26.30;91.30
2623;DHT22;1321;48.690;9.022;2023-07-13T15:22:58;26.40;91.40
2623;DHT22;1321;48.690;9.022;2023-07-13T15:25:30;26.40;91.30
2623;DHT22;1321;48.690;9.022;2023-07-13T15:28:00;26.50;91.80
2623;DHT22;1321;48.690;9.022;2023-07-13T15:30:40;26.60;91.60
2623;DHT22;1321;48.690;9.022;2023-07-13T15:33:13;26.50;90.90
2623;DHT22;1321;48.690;9.022;2023-07-13T15:35:44;26.40;86.70
2623;DHT22;1321;48.690;9.022;2023-07-13T15:38:17;26.40;88.20
2623;DHT22;1321;48.690;9.022;2023-07-13T15:40:48;26.50;88.00
2623;DHT22;1321;48.690;9.022;2023-07-13T15:43:17;26.40;87.40
2623;DHT22;1321;48.690;9.022;2023-07-13T15:45:49;26.40;87.30
2623;DHT22;1321;48.690;9.022;2023-07-13T15:48:20;26.40;88.00
2623;DHT22;1321;48.690;9.022;2023-07-13T15:50:50;26.40;87.90
2623;DHT22;1321;48.690;9.022;2023-07-13T15:53:20;26.40;88.20
2623;DHT22;1321;48.690;9.022;2023-07-13T15:55:52;26.40;88.70
2623;DHT22;1321;48.690;9.022;2023-07-13T15:58:29;26.30;87.00
2623;DHT22;1321;48.690;9.022;2023-07-13T16:00:58;26.30;86.70
2623;DHT22;1321;48.690;9.022;2023-07-13T16:03:26;26.30;86.10
2623;DHT22;1321;48.690;9.022;2023-07-13T16:05:55;26.30;88.30
2623;DHT22;1321;48.690;9.022;2023-07-13T16:08:26;26.30;88.00
2623;DHT22;1321;48.690;9.022;2023-07-13T16:10:56;26.40;89.70
2623;DHT22;1321;48.690;9.022;2023-07-13T16:13:25;26.30;96.40
2623;DHT22;1321;48.690;9.022;2023-07-13T16:15:54;26.30;86.10
2623;DHT22;1321;48.690;9.022;2023-07-13T16:18:24;26.30;89.10
2623;DHT22;1321;48.690;9.022;2023-07-13T16:20:52;26.40;88.50
2623;DHT22;1321;48.690;9.022;2023-07-13T16:23:24;26.20;85.10
2623;DHT22;1321;48.690;9.022;2023-07-13T16:25:52;26.30;85.60
2623;DHT22;1321;48.690;9.022;2023-07-13T16:28:22;26.20;83.30
2623;DHT22;1321;48.690;9.022;2023-07-13T16:30:50;26.20;83.10
2623;DHT22;1321;48.690;9.022;2023-07-13T16:33:18;26.10;83.10
2623;DHT22;1321;48.690;9.022;2023-07-13T16:35:49;26.10;83.80
2623;DHT22;1321;48.690;9.022;2023-07-13T16:38:18;26.10;84.40
2623;DHT22;1321;48.690;9.022;2023-07-13T16:40:47;26.20;85.80
2623;DHT22;1321;48.690;9.022;2023-07-13T16:43:17;26.20;83.80
2623;DHT22;1321;48.690;9.022;2023-07-13T16:45:50;26.00;79.40
2623;DHT22;1321;48.690;9.022;2023-07-13T16:48:28;25.90;77.80
2623;DHT22;1321;48.690;9.022;2023-07-13T16:50:57;25.90;79.00
2623;DHT22;1321;48.690;9.022;2023-07-13T16:53:27;25.80;77.80
2623;DHT22;1321;48.690;9.022;2023-07-13T16:55:56;25.70;78.20
2623;DHT22;1321;48.690;9.022;2023-07-13T16:58:29;25.70;75.40
2623;DHT22;1321;48.690;9.022;2023-07-13T17:01:00;25.70;76.50
2623;DHT22;1321;48.690;9.022;2023-07-13T17:03:31;25.60;74.00
2623;DHT22;1321;48.690;9.022;2023-07-13T17:06:02;25.60;76.60
2623;DHT22;1321;48.690;9.022;2023-07-13T17:08:38;25.60;74.90